sensor_id;sensor_type;location;lat;lon;timestamp;P1;durP1;ratioP1;P2;durP2;ratioP2
21215;SDS011;10765;50.954;5.322;2022-11-15T00:00:44;16.47;;;14.80;;
21215;SDS011;10765;50.954;5.322;2022-11-15T00:03:14;15.37;;;13.77;;
21215;SDS011;10765;50.954;5.322;2022-11-15T00:05:41;15.50;;;13.50;;
21215;SDS011;10765;50.954;5.322;2022-11-15T00:08:08;15.73;;;14.07;;
21215;SDS011;10765;50.954;5.322;2022-11-15T00:10:35;15.97;;;14.27;;
21215;SDS011;10765;50.954;5.322;2022-11-15T00:13:04;17.70;;;13.77;;
21215;SDS011;10765;50.954;5.322;2022-11-15T00:15:34;14.53;;;13.03;;
21215;SDS011;10765;50.954;5.322;2022-11-15T00:18:02;14.93;;;13.27;;
21215;SDS011;10765;50.954;5.322;2022-11-15T00:20:31;14.77;;;13.30;;
21215;SDS011;10765;50.954;5.322;2022-11-15T00:22:59;14.43;;;12.83;;
21215;SDS011;10765;50.954;5.322;2022-11-15T00:25:26;14.90;;;13.43;;
21215;SDS011;10765;50.954;5.322;2022-11-15T00:27:54;15.23;;;12.90;;
21215;SDS011;10765;50.954;5.322;2022-11-15T00:30:22;15.70;;;13.43;;
21215;SDS011;10765;50.954;5.322;2022-11-15T00:32:49;17.63;;;14.13;;
21215;SDS011;10765;50.954;5.322;2022-11-15T00:35:16;15.20;;;13.63;;
21215;SDS011;10765;50.954;5.322;2022-11-15T00:37:45;15.77;;;14.00;;
21215;SDS011;10765;50.954;5.322;2022-11-15T00:40:13;15.63;;;14.13;;
21215;SDS011;10765;50.954;5.322;2022-11-15T00:42:40;16.80;;;13.60;;
21215;SDS011;10765;50.954;5.322;2022-11-15T00:45:07;15.13;;;13.33;;
21215;SDS011;10765;50.954;5.322;2022-11-15T00:47:35;14.77;;;13.27;;
21215;SDS011;10765;50.954;5.322;2022-11-15T00:50:02;15.50;;;13.87;;
21215;SDS011;10765;50.954;5.322;2022-11-15T00:52:29;14.70;;;13.20;;
21215;SDS011;10765;50.954;5.322;2022-11-15T00:54:58;15.27;;;13.33;;
21215;SDS011;10765;50.954;5.322;2022-11-15T00:57:25;15.73;;;14.07;;
21215;SDS011;10765;50.954;5.322;2022-11-15T00:59:51;14.33;;;12.93;;
21215;SDS011;10765;50.954;5.322;2022-11-15T01:02:18;19.40;;;14.23;;
21215;SDS011;10765;50.954;5.322;2022-11-15T01:04:45;15.43;;;13.83;;
21215;SDS011;10765;50.954;5.322;2022-11-15T01:07:12;14.80;;;13.27;;
21215;SDS011;10765;50.954;5.322;2022-11-15T01:09:39;16.03;;;14.20;;
21215;SDS011;10765;50.954;5.322;2022-11-15T01:12:08;16.93;;;13.63;;
21215;SDS011;10765;50.954;5.322;2022-11-15T01:14:34;14.40;;;13.00;;
21215;SDS011;10765;50.954;5.322;2022-11-15T01:17:01;14.43;;;13.03;;
21215;SDS011;10765;50.954;5.322;2022-11-15T01:19:28;14.87;;;12.53;;
21215;SDS011;10765;50.954;5.322;2022-11-15T01:21:55;14.83;;;12.83;;
21215;SDS011;10765;50.954;5.322;2022-11-15T01:24:22;14.17;;;12.67;;
21215;SDS011;10765;50.954;5.322;2022-11-15T01:26:49;14.23;;;12.83;;
21215;SDS011;10765;50.954;5.322;2022-11-15T01:29:17;14.63;;;12.70;;
21215;SDS011;10765;50.954;5.322;2022-11-15T01:31:44;14.07;;;12.60;;
21215;SDS011;10765;50.954;5.322;2022-11-15T01:34:11;13.77;;;12.37;;
21215;SDS011;10765;50.954;5.322;2022-11-15T01:36:40;14.20;;;12.90;;
21215;SDS011;10765;50.954;5.322;2022-11-15T01:39:07;14.07;;;12.50;;
21215;SDS011;10765;50.954;5.322;2022-11-15T01:41:34;15.13;;;13.60;;
21215;SDS011;10765;50.954;5.322;2022-11-15T01:47:05;14.20;;;12.80;;
21215;SDS011;10765;50.954;5.322;2022-11-15T01:49:38;14.03;;;12.63;;
21215;SDS011;10765;50.954;5.322;2022-11-15T01:52:09;16.07;;;12.70;;
21215;SDS011;10765;50.954;5.322;2022-11-15T01:54:40;14.47;;;13.03;;
21215;SDS011;10765;50.954;5.322;2022-11-15T01:57:09;14.00;;;12.60;;
21215;SDS011;10765;50.954;5.322;2022-11-15T01:59:40;14.17;;;12.67;;
21215;SDS011;10765;50.954;5.322;2022-11-15T02:02:09;12.93;;;11.60;;
21215;SDS011;10765;50.954;5.322;2022-11-15T02:04:37;14.73;;;13.10;;
21215;SDS011;10765;50.954;5.322;2022-11-15T02:07:07;12.97;;;11.70;;
21215;SDS011;10765;50.954;5.322;2022-11-15T02:09:37;13.87;;;12.43;;
21215;SDS011;10765;50.954;5.322;2022-11-15T02:12:04;13.97;;;12.23;;
21215;SDS011;10765;50.954;5.322;2022-11-15T02:14:33;13.37;;;12.00;;
21215;SDS011;10765;50.954;5.322;2022-11-15T02:17:05;12.50;;;11.30;;
21215;SDS011;10765;50.954;5.322;2022-11-15T02:19:50;12.50;;;11.27;;
21215;SDS011;10765;50.954;5.322;2022-11-15T02:22:43;13.40;;;12.07;;
21215;SDS011;10765;50.954;5.322;2022-11-15T02:28:10;12.60;;;11.40;;
21215;SDS011;10765;50.954;5.322;2022-11-15T02:30:55;13.43;;;12.03;;
21215;SDS011;10765;50.954;5.322;2022-11-15T02:33:34;13.03;;;11.73;;
21215;SDS011;10765;50.954;5.322;2022-11-15T02:36:09;13.57;;;12.17;;
21215;SDS011;10765;50.954;5.322;2022-11-15T02:38:43;12.67;;;11.47;;
21215;SDS011;10765;50.954;5.322;2022-11-15T02:41:20;13.43;;;12.10;;
21215;SDS011;10765;50.954;5.322;2022-11-15T02:43:53;13.17;;;11.30;;
21215;SDS011;10765;50.954;5.322;2022-11-15T02:46:27;12.80;;;11.13;;
21215;SDS011;10765;50.954;5.322;2022-11-15T02:49:17;12.43;;;11.17;;
21215;SDS011;10765;50.954;5.322;2022-11-15T02:51:45;12.37;;;11.17;;
21215;SDS011;10765;50.954;5.322;2022-11-15T02:54:15;12.40;;;10.47;;
21215;SDS011;10765;50.954;5.322;2022-11-15T02:56:47;11.03;;;9.90;;
21215;SDS011;10765;50.954;5.322;2022-11-15T02:59:19;12.00;;;10.80;;
21215;SDS011;10765;50.954;5.322;2022-11-15T03:02:11;12.47;;;11.17;;
21215;SDS011;10765;50.954;5.322;2022-11-15T03:04:52;12.87;;;11.53;;
21215;SDS011;10765;50.954;5.322;2022-11-15T03:07:23;13.93;;;12.20;;
21215;SDS011;10765;50.954;5.322;2022-11-15T03:09:56;13.27;;;11.87;;
21215;SDS011;10765;50.954;5.322;2022-11-15T03:12:30;12.90;;;11.57;;
21215;SDS011;10765;50.954;5.322;2022-11-15T03:15:04;13.73;;;11.70;;
21215;SDS011;10765;50.954;5.322;2022-11-15T03:17:35;12.60;;;11.40;;
21215;SDS011;10765;50.954;5.322;2022-11-15T03:20:06;12.63;;;11.43;;
21215;SDS011;10765;50.954;5.322;2022-11-15T03:22:36;13.20;;;11.80;;
21215;SDS011;10765;50.954;5.322;2022-11-15T03:25:07;14.20;;;12.30;;
21215;SDS011;10765;50.954;5.322;2022-11-15T03:27:37;12.50;;;11.20;;
21215;SDS011;10765;50.954;5.322;2022-11-15T03:30:08;14.00;;;12.60;;
21215;SDS011;10765;50.954;5.322;2022-11-15T03:32:38;12.10;;;11.00;;
21215;SDS011;10765;50.954;5.322;2022-11-15T03:35:11;14.60;;;12.20;;
21215;SDS011;10765;50.954;5.322;2022-11-15T03:37:41;13.07;;;11.80;;
21215;SDS011;10765;50.954;5.322;2022-11-15T03:40:13;13.73;;;12.33;;
21215;SDS011;10765;50.954;5.322;2022-11-15T03:42:42;12.50;;;11.20;;
21215;SDS011;10765;50.954;5.322;2022-11-15T03:45:15;13.10;;;11.73;;
21215;SDS011;10765;50.954;5.322;2022-11-15T03:47:47;12.83;;;11.43;;
21215;SDS011;10765;50.954;5.322;2022-11-15T03:50:18;12.07;;;10.97;;
21215;SDS011;10765;50.954;5.322;2022-11-15T03:52:47;13.00;;;11.80;;
21215;SDS011;10765;50.954;5.322;2022-11-15T03:55:16;12.87;;;11.60;;
21215;SDS011;10765;50.954;5.322;2022-11-15T03:57:44;13.33;;;11.43;;
21215;SDS011;10765;50.954;5.322;2022-11-15T04:00:12;12.50;;;11.27;;
21215;SDS011;10765;50.954;5.322;2022-11-15T04:02:39;14.63;;;12.80;;
21215;SDS011;10765;50.954;5.322;2022-11-15T04:05:08;12.23;;;11.03;;
21215;SDS011;10765;50.954;5.322;2022-11-15T04:07:34;13.07;;;11.70;;
21215;SDS011;10765;50.954;5.322;2022-11-15T04:10:02;12.47;;;11.17;;
21215;SDS011;10765;50.954;5.322;2022-11-15T04:12:30;13.17;;;11.87;;
21215;SDS011;10765;50.954;5.322;2022-11-15T04:14:58;11.60;;;10.50;;
21215;SDS011;10765;50.954;5.322;2022-11-15T04:17:36;12.43;;;11.17;;
21215;SDS011;10765;50.954;5.322;2022-11-15T04:20:04;12.33;;;11.13;;
21215;SDS011;10765;50.954;5.322;2022-11-15T04:22:53;11.30;;;10.30;;
21215;SDS011;10765;50.954;5.322;2022-11-15T04:25:38;12.50;;;11.23;;
21215;SDS011;10765;50.954;5.322;2022-11-15T04:28:05;11.97;;;10.77;;
21215;SDS011;10765;50.954;5.322;2022-11-15T04:30:32;11.73;;;10.63;;
21215;SDS011;10765;50.954;5.322;2022-11-15T04:32:59;12.40;;;11.30;;
21215;SDS011;10765;50.954;5.322;2022-11-15T04:35:26;13.00;;;11.57;;
21215;SDS011;10765;50.954;5.322;2022-11-15T04:37:54;12.90;;;11.33;;
21215;SDS011;10765;50.954;5.322;2022-11-15T04:40:22;12.30;;;11.10;;
21215;SDS011;10765;50.954;5.322;2022-11-15T04:42:49;12.53;;;11.33;;
21215;SDS011;10765;50.954;5.322;2022-11-15T04:45:15;12.97;;;11.57;;
21215;SDS011;10765;50.954;5.322;2022-11-15T04:47:43;12.53;;;11.33;;
21215;SDS011;10765;50.954;5.322;2022-11-15T04:50:10;12.63;;;11.33;;
21215;SDS011;10765;50.954;5.322;2022-11-15T04:52:39;13.30;;;11.93;;
21215;SDS011;10765;50.954;5.322;2022-11-15T04:55:08;13.57;;;12.27;;
21215;SDS011;10765;50.954;5.322;2022-11-15T04:57:35;8.80;;;7.90;;
21215;SDS011;10765;50.954;5.322;2022-11-15T05:00:03;7.97;;;7.20;;
21215;SDS011;10765;50.954;5.322;2022-11-15T05:02:31;7.00;;;6.27;;
21215;SDS011;10765;50.954;5.322;2022-11-15T05:05:12;6.07;;;5.47;;
21215;SDS011;10765;50.954;5.322;2022-11-15T05:07:39;5.70;;;5.10;;
21215;SDS011;10765;50.954;5.322;2022-11-15T05:10:08;5.90;;;4.73;;
21215;SDS011;10765;50.954;5.322;2022-11-15T05:12:35;4.47;;;4.07;;
21215;SDS011;10765;50.954;5.322;2022-11-15T05:15:02;5.33;;;4.03;;
21215;SDS011;10765;50.954;5.322;2022-11-15T05:17:29;4.23;;;3.83;;
21215;SDS011;10765;50.954;5.322;2022-11-15T05:19:56;5.00;;;4.00;;
21215;SDS011;10765;50.954;5.322;2022-11-15T05:22:23;5.97;;;4.20;;
21215;SDS011;10765;50.954;5.322;2022-11-15T05:24:50;5.90;;;3.77;;
21215;SDS011;10765;50.954;5.322;2022-11-15T05:27:18;3.87;;;3.30;;
21215;SDS011;10765;50.954;5.322;2022-11-15T05:29:45;4.37;;;3.23;;
21215;SDS011;10765;50.954;5.322;2022-11-15T05:32:12;5.43;;;3.33;;
21215;SDS011;10765;50.954;5.322;2022-11-15T05:34:39;6.33;;;3.77;;
21215;SDS011;10765;50.954;5.322;2022-11-15T05:37:07;3.83;;;3.17;;
21215;SDS011;10765;50.954;5.322;2022-11-15T05:39:33;4.50;;;3.30;;
21215;SDS011;10765;50.954;5.322;2022-11-15T05:42:01;6.57;;;3.23;;
21215;SDS011;10765;50.954;5.322;2022-11-15T05:44:34;4.40;;;3.20;;
21215;SDS011;10765;50.954;5.322;2022-11-15T05:47:03;5.27;;;3.67;;
21215;SDS011;10765;50.954;5.322;2022-11-15T05:49:33;4.63;;;4.00;;
21215;SDS011;10765;50.954;5.322;2022-11-15T05:52:05;7.53;;;4.20;;
21215;SDS011;10765;50.954;5.322;2022-11-15T05:54:33;4.67;;;4.10;;
21215;SDS011;10765;50.954;5.322;2022-11-15T05:57:02;5.63;;;4.40;;
21215;SDS011;10765;50.954;5.322;2022-11-15T05:59:30;5.83;;;5.10;;
21215;SDS011;10765;50.954;5.322;2022-11-15T06:02:00;6.60;;;6.00;;
21215;SDS011;10765;50.954;5.322;2022-11-15T06:04:27;7.17;;;6.47;;
21215;SDS011;10765;50.954;5.322;2022-11-15T06:06:54;7.47;;;6.53;;
21215;SDS011;10765;50.954;5.322;2022-11-15T06:09:21;7.53;;;6.73;;
21215;SDS011;10765;50.954;5.322;2022-11-15T06:11:48;9.40;;;8.03;;
21215;SDS011;10765;50.954;5.322;2022-11-15T06:14:15;10.27;;;7.87;;
21215;SDS011;10765;50.954;5.322;2022-11-15T06:16:41;8.60;;;7.70;;
21215;SDS011;10765;50.954;5.322;2022-11-15T06:19:10;9.67;;;8.07;;
21215;SDS011;10765;50.954;5.322;2022-11-15T06:21:37;8.77;;;7.87;;
21215;SDS011;10765;50.954;5.322;2022-11-15T06:24:04;8.53;;;7.47;;
21215;SDS011;10765;50.954;5.322;2022-11-15T06:26:32;11.43;;;7.43;;
21215;SDS011;10765;50.954;5.322;2022-11-15T06:28:59;9.90;;;8.07;;
21215;SDS011;10765;50.954;5.322;2022-11-15T06:31:26;9.73;;;7.70;;
21215;SDS011;10765;50.954;5.322;2022-11-15T06:33:52;7.90;;;6.70;;
21215;SDS011;10765;50.954;5.322;2022-11-15T06:36:21;8.70;;;7.70;;
21215;SDS011;10765;50.954;5.322;2022-11-15T06:38:48;9.27;;;7.57;;
21215;SDS011;10765;50.954;5.322;2022-11-15T06:41:14;8.73;;;7.87;;
21215;SDS011;10765;50.954;5.322;2022-11-15T06:43:42;9.47;;;7.10;;
21215;SDS011;10765;50.954;5.322;2022-11-15T06:46:09;7.93;;;7.23;;
21215;SDS011;10765;50.954;5.322;2022-11-15T06:48:36;7.83;;;6.80;;
21215;SDS011;10765;50.954;5.322;2022-11-15T06:51:03;7.20;;;6.50;;
21215;SDS011;10765;50.954;5.322;2022-11-15T06:53:32;7.20;;;6.43;;
21215;SDS011;10765;50.954;5.322;2022-11-15T06:55:59;7.20;;;6.27;;
21215;SDS011;10765;50.954;5.322;2022-11-15T06:58:27;7.07;;;6.10;;
21215;SDS011;10765;50.954;5.322;2022-11-15T07:00:57;5.90;;;5.40;;
21215;SDS011;10765;50.954;5.322;2022-11-15T07:03:26;6.40;;;5.60;;
21215;SDS011;10765;50.954;5.322;2022-11-15T07:05:53;6.13;;;5.10;;
21215;SDS011;10765;50.954;5.322;2022-11-15T07:08:21;6.40;;;5.10;;
21215;SDS011;10765;50.954;5.322;2022-11-15T07:10:49;7.33;;;5.57;;
21215;SDS011;10765;50.954;5.322;2022-11-15T07:13:16;6.13;;;5.20;;
21215;SDS011;10765;50.954;5.322;2022-11-15T07:15:43;6.50;;;5.10;;
21215;SDS011;10765;50.954;5.322;2022-11-15T07:18:10;7.90;;;5.80;;
21215;SDS011;10765;50.954;5.322;2022-11-15T07:20:37;7.37;;;5.50;;
21215;SDS011;10765;50.954;5.322;2022-11-15T07:23:04;6.27;;;5.67;;
21215;SDS011;10765;50.954;5.322;2022-11-15T07:25:32;6.53;;;5.60;;
21215;SDS011;10765;50.954;5.322;2022-11-15T07:28:01;6.13;;;5.53;;
21215;SDS011;10765;50.954;5.322;2022-11-15T07:30:28;6.10;;;5.43;;
21215;SDS011;10765;50.954;5.322;2022-11-15T07:32:56;8.00;;;6.43;;
21215;SDS011;10765;50.954;5.322;2022-11-15T07:35:23;7.10;;;6.40;;
21215;SDS011;10765;50.954;5.322;2022-11-15T07:37:55;6.97;;;6.17;;
21215;SDS011;10765;50.954;5.322;2022-11-15T07:40:23;6.90;;;6.23;;
21215;SDS011;10765;50.954;5.322;2022-11-15T07:42:50;7.80;;;6.10;;
21215;SDS011;10765;50.954;5.322;2022-11-15T07:45:22;6.63;;;6.03;;
21215;SDS011;10765;50.954;5.322;2022-11-15T07:47:51;7.57;;;6.40;;
21215;SDS011;10765;50.954;5.322;2022-11-15T07:50:19;6.80;;;6.10;;
21215;SDS011;10765;50.954;5.322;2022-11-15T07:52:46;6.90;;;6.30;;
21215;SDS011;10765;50.954;5.322;2022-11-15T07:55:13;6.10;;;5.60;;
21215;SDS011;10765;50.954;5.322;2022-11-15T07:57:40;6.70;;;5.90;;
21215;SDS011;10765;50.954;5.322;2022-11-15T08:00:07;7.07;;;6.37;;
21215;SDS011;10765;50.954;5.322;2022-11-15T08:02:36;6.60;;;6.00;;
21215;SDS011;10765;50.954;5.322;2022-11-15T08:05:03;7.33;;;6.07;;
21215;SDS011;10765;50.954;5.322;2022-11-15T08:07:31;5.73;;;5.13;;
21215;SDS011;10765;50.954;5.322;2022-11-15T08:09:58;6.37;;;4.80;;
21215;SDS011;10765;50.954;5.322;2022-11-15T08:12:26;4.80;;;4.37;;
21215;SDS011;10765;50.954;5.322;2022-11-15T08:14:53;4.50;;;3.77;;
21215;SDS011;10765;50.954;5.322;2022-11-15T08:17:20;5.77;;;3.27;;
21215;SDS011;10765;50.954;5.322;2022-11-15T08:19:49;3.00;;;2.70;;
21215;SDS011;10765;50.954;5.322;2022-11-15T08:22:16;4.50;;;2.37;;
21215;SDS011;10765;50.954;5.322;2022-11-15T08:24:43;2.80;;;1.90;;
21215;SDS011;10765;50.954;5.322;2022-11-15T08:27:10;3.00;;;1.80;;
21215;SDS011;10765;50.954;5.322;2022-11-15T08:29:41;2.83;;;1.67;;
21215;SDS011;10765;50.954;5.322;2022-11-15T08:32:09;4.00;;;1.80;;
21215;SDS011;10765;50.954;5.322;2022-11-15T08:34:36;3.33;;;1.33;;
21215;SDS011;10765;50.954;5.322;2022-11-15T08:37:04;1.57;;;1.40;;
21215;SDS011;10765;50.954;5.322;2022-11-15T08:39:31;3.27;;;1.37;;
21215;SDS011;10765;50.954;5.322;2022-11-15T08:41:58;2.63;;;1.30;;
21215;SDS011;10765;50.954;5.322;2022-11-15T08:44:25;2.43;;;1.30;;
21215;SDS011;10765;50.954;5.322;2022-11-15T08:46:52;2.27;;;1.30;;
21215;SDS011;10765;50.954;5.322;2022-11-15T08:49:19;3.20;;;1.00;;
21215;SDS011;10765;50.954;5.322;2022-11-15T08:51:46;3.63;;;1.23;;
21215;SDS011;10765;50.954;5.322;2022-11-15T08:54:14;1.30;;;0.87;;
21215;SDS011;10765;50.954;5.322;2022-11-15T08:56:41;4.47;;;1.10;;
21215;SDS011;10765;50.954;5.322;2022-11-15T08:59:08;4.63;;;1.20;;
21215;SDS011;10765;50.954;5.322;2022-11-15T09:01:35;2.97;;;1.17;;
21215;SDS011;10765;50.954;5.322;2022-11-15T09:04:02;2.33;;;1.10;;
21215;SDS011;10765;50.954;5.322;2022-11-15T09:06:29;3.07;;;1.00;;
21215;SDS011;10765;50.954;5.322;2022-11-15T09:08:56;1.33;;;0.93;;
21215;SDS011;10765;50.954;5.322;2022-11-15T09:11:25;2.37;;;1.10;;
21215;SDS011;10765;50.954;5.322;2022-11-15T09:13:51;3.33;;;1.00;;
21215;SDS011;10765;50.954;5.322;2022-11-15T09:16:19;3.57;;;1.20;;
21215;SDS011;10765;50.954;5.322;2022-11-15T09:18:46;2.50;;;0.90;;
21215;SDS011;10765;50.954;5.322;2022-11-15T09:21:13;4.27;;;1.23;;
21215;SDS011;10765;50.954;5.322;2022-11-15T09:23:40;2.53;;;1.00;;
21215;SDS011;10765;50.954;5.322;2022-11-15T09:26:07;3.70;;;1.20;;
21215;SDS011;10765;50.954;5.322;2022-11-15T09:28:36;2.37;;;1.10;;
21215;SDS011;10765;50.954;5.322;2022-11-15T09:31:04;2.63;;;1.00;;
21215;SDS011;10765;50.954;5.322;2022-11-15T09:33:32;5.07;;;0.93;;
21215;SDS011;10765;50.954;5.322;2022-11-15T09:35:59;2.17;;;0.93;;
21215;SDS011;10765;50.954;5.322;2022-11-15T09:38:27;3.13;;;1.20;;
21215;SDS011;10765;50.954;5.322;2022-11-15T09:40:57;3.27;;;1.10;;
21215;SDS011;10765;50.954;5.322;2022-11-15T09:43:42;1.87;;;1.10;;
21215;SDS011;10765;50.954;5.322;2022-11-15T09:46:15;4.67;;;1.40;;
21215;SDS011;10765;50.954;5.322;2022-11-15T09:48:52;4.03;;;1.20;;
21215;SDS011;10765;50.954;5.322;2022-11-15T09:51:25;4.23;;;1.60;;
21215;SDS011;10765;50.954;5.322;2022-11-15T09:54:04;3.10;;;1.30;;
21215;SDS011;10765;50.954;5.322;2022-11-15T09:56:37;3.10;;;1.23;;
21215;SDS011;10765;50.954;5.322;2022-11-15T10:02:04;2.90;;;1.10;;
21215;SDS011;10765;50.954;5.322;2022-11-15T10:04:41;3.03;;;1.10;;
21215;SDS011;10765;50.954;5.322;2022-11-15T10:07:13;3.70;;;1.43;;
21215;SDS011;10765;50.954;5.322;2022-11-15T10:09:45;3.10;;;1.10;;
21215;SDS011;10765;50.954;5.322;2022-11-15T10:12:18;3.03;;;1.00;;
21215;SDS011;10765;50.954;5.322;2022-11-15T10:14:47;2.57;;;1.00;;
21215;SDS011;10765;50.954;5.322;2022-11-15T10:17:24;3.50;;;1.03;;
21215;SDS011;10765;50.954;5.322;2022-11-15T10:20:09;4.50;;;1.33;;
21215;SDS011;10765;50.954;5.322;2022-11-15T10:22:44;4.23;;;1.13;;
21215;SDS011;10765;50.954;5.322;2022-11-15T10:25:18;3.13;;;0.90;;
21215;SDS011;10765;50.954;5.322;2022-11-15T10:27:50;2.63;;;1.17;;
21215;SDS011;10765;50.954;5.322;2022-11-15T10:30:21;2.67;;;1.10;;
21215;SDS011;10765;50.954;5.322;2022-11-15T10:32:48;4.03;;;1.07;;
21215;SDS011;10765;50.954;5.322;2022-11-15T10:35:19;3.87;;;1.17;;
21215;SDS011;10765;50.954;5.322;2022-11-15T10:37:48;5.67;;;1.40;;
21215;SDS011;10765;50.954;5.322;2022-11-15T10:40:16;2.77;;;1.27;;
21215;SDS011;10765;50.954;5.322;2022-11-15T10:42:45;3.37;;;1.17;;
21215;SDS011;10765;50.954;5.322;2022-11-15T10:48:19;4.00;;;1.40;;
21215;SDS011;10765;50.954;5.322;2022-11-15T10:50:47;2.77;;;1.10;;
21215;SDS011;10765;50.954;5.322;2022-11-15T10:53:17;2.47;;;0.90;;
21215;SDS011;10765;50.954;5.322;2022-11-15T10:55:49;2.30;;;1.10;;
21215;SDS011;10765;50.954;5.322;2022-11-15T10:58:22;2.80;;;1.00;;
21215;SDS011;10765;50.954;5.322;2022-11-15T11:01:09;2.50;;;0.90;;
21215;SDS011;10765;50.954;5.322;2022-11-15T11:03:39;3.00;;;1.00;;
21215;SDS011;10765;50.954;5.322;2022-11-15T11:06:08;1.90;;;1.00;;
21215;SDS011;10765;50.954;5.322;2022-11-15T11:08:37;2.90;;;0.90;;
21215;SDS011;10765;50.954;5.322;2022-11-15T11:11:04;3.90;;;1.00;;
21215;SDS011;10765;50.954;5.322;2022-11-15T11:13:33;4.53;;;1.00;;
21215;SDS011;10765;50.954;5.322;2022-11-15T11:16:18;3.07;;;1.03;;
21215;SDS011;10765;50.954;5.322;2022-11-15T11:19:14;1.90;;;0.73;;
21215;SDS011;10765;50.954;5.322;2022-11-15T11:22:12;4.23;;;1.10;;
21215;SDS011;10765;50.954;5.322;2022-11-15T11:24:48;4.13;;;1.10;;
21215;SDS011;10765;50.954;5.322;2022-11-15T11:27:29;2.60;;;0.80;;
21215;SDS011;10765;50.954;5.322;2022-11-15T11:30:08;3.57;;;1.20;;
21215;SDS011;10765;50.954;5.322;2022-11-15T11:32:50;2.77;;;1.00;;
21215;SDS011;10765;50.954;5.322;2022-11-15T11:35:24;3.30;;;0.90;;
21215;SDS011;10765;50.954;5.322;2022-11-15T11:37:59;2.50;;;0.90;;
21215;SDS011;10765;50.954;5.322;2022-11-15T11:40:37;2.20;;;0.80;;
21215;SDS011;10765;50.954;5.322;2022-11-15T11:43:11;2.20;;;0.90;;
21215;SDS011;10765;50.954;5.322;2022-11-15T11:48:42;3.33;;;1.20;;
21215;SDS011;10765;50.954;5.322;2022-11-15T11:51:12;3.23;;;0.90;;
21215;SDS011;10765;50.954;5.322;2022-11-15T11:53:45;3.87;;;1.10;;
21215;SDS011;10765;50.954;5.322;2022-11-15T11:56:19;3.13;;;1.10;;
21215;SDS011;10765;50.954;5.322;2022-11-15T11:58:52;4.27;;;0.83;;
21215;SDS011;10765;50.954;5.322;2022-11-15T12:01:22;4.63;;;1.00;;
21215;SDS011;10765;50.954;5.322;2022-11-15T12:03:53;3.03;;;0.90;;
21215;SDS011;10765;50.954;5.322;2022-11-15T12:06:24;3.97;;;1.17;;
21215;SDS011;10765;50.954;5.322;2022-11-15T12:08:58;2.47;;;1.00;;
21215;SDS011;10765;50.954;5.322;2022-11-15T12:11:32;4.60;;;0.80;;
21215;SDS011;10765;50.954;5.322;2022-11-15T12:14:08;3.50;;;1.23;;
21215;SDS011;10765;50.954;5.322;2022-11-15T12:16:45;2.73;;;1.10;;
21215;SDS011;10765;50.954;5.322;2022-11-15T12:19:13;2.53;;;1.00;;
21215;SDS011;10765;50.954;5.322;2022-11-15T12:21:42;3.87;;;0.93;;
21215;SDS011;10765;50.954;5.322;2022-11-15T12:24:14;5.30;;;1.10;;
21215;SDS011;10765;50.954;5.322;2022-11-15T12:26:46;2.80;;;0.93;;
21215;SDS011;10765;50.954;5.322;2022-11-15T12:29:19;3.97;;;1.10;;
21215;SDS011;10765;50.954;5.322;2022-11-15T12:31:52;3.10;;;1.00;;
21215;SDS011;10765;50.954;5.322;2022-11-15T12:34:36;3.13;;;1.10;;
21215;SDS011;10765;50.954;5.322;2022-11-15T12:40:04;3.53;;;1.00;;
21215;SDS011;10765;50.954;5.322;2022-11-15T12:45:55;2.20;;;1.00;;
21215;SDS011;10765;50.954;5.322;2022-11-15T12:57:37;2.73;;;1.10;;
21215;SDS011;10765;50.954;5.322;2022-11-15T13:06:04;1.43;;;0.90;;
21215;SDS011;10765;50.954;5.322;2022-11-15T13:08:40;8.87;;;1.73;;
21215;SDS011;10765;50.954;5.322;2022-11-15T13:17:31;5.57;;;1.20;;
21215;SDS011;10765;50.954;5.322;2022-11-15T13:20:18;2.20;;;0.93;;
21215;SDS011;10765;50.954;5.322;2022-11-15T13:22:48;2.63;;;1.03;;
21215;SDS011;10765;50.954;5.322;2022-11-15T13:25:18;1.90;;;1.00;;
21215;SDS011;10765;50.954;5.322;2022-11-15T13:27:51;3.80;;;1.30;;
21215;SDS011;10765;50.954;5.322;2022-11-15T13:30:20;1.33;;;0.73;;
21215;SDS011;10765;50.954;5.322;2022-11-15T13:32:49;3.23;;;1.30;;
21215;SDS011;10765;50.954;5.322;2022-11-15T13:35:21;2.43;;;1.00;;
21215;SDS011;10765;50.954;5.322;2022-11-15T13:37:50;3.20;;;1.10;;
21215;SDS011;10765;50.954;5.322;2022-11-15T13:40:20;5.07;;;1.30;;
21215;SDS011;10765;50.954;5.322;2022-11-15T13:42:52;2.37;;;1.23;;
21215;SDS011;10765;50.954;5.322;2022-11-15T13:45:19;5.53;;;1.30;;
21215;SDS011;10765;50.954;5.322;2022-11-15T13:47:53;5.33;;;1.30;;
21215;SDS011;10765;50.954;5.322;2022-11-15T13:50:23;3.60;;;1.20;;
21215;SDS011;10765;50.954;5.322;2022-11-15T13:52:52;4.07;;;1.40;;
21215;SDS011;10765;50.954;5.322;2022-11-15T13:55:23;4.00;;;1.40;;
21215;SDS011;10765;50.954;5.322;2022-11-15T13:57:52;4.23;;;1.47;;
21215;SDS011;10765;50.954;5.322;2022-11-15T14:00:25;2.77;;;1.37;;
21215;SDS011;10765;50.954;5.322;2022-11-15T14:03:05;3.40;;;1.13;;
21215;SDS011;10765;50.954;5.322;2022-11-15T14:05:39;4.07;;;1.20;;
21215;SDS011;10765;50.954;5.322;2022-11-15T14:08:13;6.40;;;1.87;;
21215;SDS011;10765;50.954;5.322;2022-11-15T14:10:49;2.17;;;1.00;;
21215;SDS011;10765;50.954;5.322;2022-11-15T14:13:32;3.53;;;1.20;;
21215;SDS011;10765;50.954;5.322;2022-11-15T14:16:12;3.53;;;1.27;;
21215;SDS011;10765;50.954;5.322;2022-11-15T14:18:43;3.90;;;1.33;;
21215;SDS011;10765;50.954;5.322;2022-11-15T14:21:11;3.50;;;1.40;;
21215;SDS011;10765;50.954;5.322;2022-11-15T14:23:39;2.37;;;1.00;;
21215;SDS011;10765;50.954;5.322;2022-11-15T14:26:10;1.47;;;1.10;;
21215;SDS011;10765;50.954;5.322;2022-11-15T14:28:52;3.00;;;1.10;;
21215;SDS011;10765;50.954;5.322;2022-11-15T14:31:18;4.23;;;1.17;;
21215;SDS011;10765;50.954;5.322;2022-11-15T14:33:48;3.80;;;1.07;;
21215;SDS011;10765;50.954;5.322;2022-11-15T14:36:16;3.93;;;1.40;;
21215;SDS011;10765;50.954;5.322;2022-11-15T14:38:43;1.90;;;1.10;;
21215;SDS011;10765;50.954;5.322;2022-11-15T14:41:16;1.53;;;1.20;;
21215;SDS011;10765;50.954;5.322;2022-11-15T14:43:45;2.30;;;1.10;;
21215;SDS011;10765;50.954;5.322;2022-11-15T14:46:12;2.60;;;1.60;;
21215;SDS011;10765;50.954;5.322;2022-11-15T14:48:39;2.27;;;1.23;;
21215;SDS011;10765;50.954;5.322;2022-11-15T14:51:11;1.53;;;1.13;;
21215;SDS011;10765;50.954;5.322;2022-11-15T14:53:39;3.10;;;1.30;;
21215;SDS011;10765;50.954;5.322;2022-11-15T14:56:06;2.90;;;1.40;;
21215;SDS011;10765;50.954;5.322;2022-11-15T14:58:33;1.60;;;1.23;;
21215;SDS011;10765;50.954;5.322;2022-11-15T15:01:01;2.43;;;1.20;;
21215;SDS011;10765;50.954;5.322;2022-11-15T15:03:29;2.77;;;1.30;;
21215;SDS011;10765;50.954;5.322;2022-11-15T15:05:56;3.40;;;1.33;;
21215;SDS011;10765;50.954;5.322;2022-11-15T15:08:24;1.97;;;1.30;;
21215;SDS011;10765;50.954;5.322;2022-11-15T15:10:51;2.03;;;1.27;;
21215;SDS011;10765;50.954;5.322;2022-11-15T15:13:18;2.37;;;1.10;;
21215;SDS011;10765;50.954;5.322;2022-11-15T15:15:46;2.03;;;1.10;;
21215;SDS011;10765;50.954;5.322;2022-11-15T15:18:14;2.13;;;1.00;;
21215;SDS011;10765;50.954;5.322;2022-11-15T15:20:42;1.97;;;1.23;;
21215;SDS011;10765;50.954;5.322;2022-11-15T15:23:14;1.67;;;1.03;;
21215;SDS011;10765;50.954;5.322;2022-11-15T15:25:44;1.87;;;1.33;;
21215;SDS011;10765;50.954;5.322;2022-11-15T15:28:11;2.60;;;1.37;;
21215;SDS011;10765;50.954;5.322;2022-11-15T15:30:38;1.97;;;1.30;;
21215;SDS011;10765;50.954;5.322;2022-11-15T15:33:05;3.73;;;1.30;;
21215;SDS011;10765;50.954;5.322;2022-11-15T15:35:33;2.40;;;1.30;;
21215;SDS011;10765;50.954;5.322;2022-11-15T15:38:01;2.20;;;1.60;;